Time;durP1;ratioP1;P1;durP2;ratioP2;P2;SDS_P1;SDS_P2;PMS_P1;PMS_P2;Temp;Humidity;BMP_temperature;BMP_pressure;BME280_temperature;BME280_humidity;BME280_pressure;Samples;Min_cycle;Max_cycle;Signal;HPM_P1;HPM_P2
2022/09/20 00:00:07;;;;;;;0.40;0.40;;;8.70;99.90;;;;;;5050992;28;20540;-65
2022/09/20 00:02:55;;;;;;;0.67;0.67;;;8.80;99.90;;;;;;5054240;28;20965;-67
2022/09/20 00:05:44;;;;;;;0.40;0.40;;;8.70;99.90;;;;;;5054491;28;20842;-67
2022/09/20 00:08:33;;;;;;;0.40;0.40;;;8.80;99.90;;;;;;5055781;28;20451;-68
2022/09/20 00:11:25;;;;;;;0.40;0.40;;;8.70;99.90;;;;;;5054600;28;20833;-67
2022/09/20 00:14:13;;;;;;;0.60;0.60;;;8.60;99.90;;;;;;5054265;28;20456;-67
2022/09/20 00:17:01;;;;;;;0.50;0.50;;;8.70;99.90;;;;;;5054626;28;20449;-67
2022/09/20 00:19:49;;;;;;;0.40;0.40;;;8.70;99.90;;;;;;5054906;28;20459;-67
2022/09/20 00:22:37;;;;;;;0.40;0.40;;;8.70;99.90;;;;;;5055195;28;20478;-67
2022/09/20 00:25:26;;;;;;;0.40;0.40;;;8.70;99.90;;;;;;5036184;28;20425;-66
2022/09/20 00:28:15;;;;;;;0.50;0.50;;;8.70;99.90;;;;;;5035180;28;21026;-67
2022/09/20 00:31:03;;;;;;;0.40;0.40;;;8.70;99.90;;;;;;5034307;28;20540;-66
2022/09/20 00:36:59;;;;;;;0.40;0.40;;;8.70;99.90;;;;;;5037021;28;20503;-67
2022/09/20 00:39:47;;;;;;;1.47;1.07;;;8.70;99.90;;;;;;5036974;28;20512;-67
2022/09/20 00:42:36;;;;;;;0.60;0.50;;;8.70;99.90;;;;;;5036883;28;20896;-67
2022/09/20 00:45:27;;;;;;;0.40;0.40;;;8.70;99.90;;;;;;5039164;28;20563;-67
2022/09/20 00:48:22;;;;;;;0.40;0.40;;;8.80;99.90;;;;;;5036900;28;20906;-67
2022/09/20 00:51:15;;;;;;;0.40;0.40;;;8.70;99.90;;;;;;5036840;28;20455;-66
2022/09/20 00:54:07;;;;;;;0.50;0.50;;;8.70;99.90;;;;;;5037864;28;20508;-67
2022/09/20 00:56:55;;;;;;;0.40;0.40;;;8.80;99.90;;;;;;5037184;28;20452;-67
2022/09/20 00:59:46;;;;;;;0.40;0.40;;;8.80;99.90;;;;;;5036692;28;20524;-67
2022/09/20 01:02:39;;;;;;;0.40;0.40;;;8.80;99.90;;;;;;5037008;28;20420;-66
2022/09/20 01:05:28;;;;;;;0.40;0.40;;;8.80;99.90;;;;;;5036416;28;21075;-67
2022/09/20 01:08:16;;;;;;;0.40;0.40;;;8.70;99.90;;;;;;5043298;28;20440;-66
2022/09/20 01:11:05;;;;;;;0.40;0.40;;;8.70;99.90;;;;;;5044384;28;20453;-67
2022/09/20 01:13:53;;;;;;;0.40;0.40;;;8.70;99.90;;;;;;5051477;28;20562;-67
2022/09/20 01:16:41;;;;;;;0.40;0.40;;;8.70;99.90;;;;;;5054808;28;20416;-66
2022/09/20 01:19:38;;;;;;;0.40;0.40;;;8.80;99.90;;;;;;5054436;28;20550;-67
2022/09/20 01:22:32;;;;;;;0.40;0.40;;;8.80;99.90;;;;;;5055489;28;20955;-67
2022/09/20 01:25:35;;;;;;;0.40;0.40;;;8.80;99.90;;;;;;5054399;28;20517;-66
2022/09/20 01:28:26;;;;;;;0.40;0.40;;;8.80;99.90;;;;;;5053540;28;20447;-67
2022/09/20 01:31:22;;;;;;;0.40;0.40;;;8.80;99.90;;;;;;5053364;28;20484;-67
2022/09/20 01:34:13;;;;;;;0.40;0.40;;;8.80;99.90;;;;;;5053802;28;20424;-67
2022/09/20 01:37:09;;;;;;;0.40;0.40;;;8.90;99.90;;;;;;5054090;28;20647;-67
2022/09/20 01:40:07;;;;;;;0.40;0.40;;;8.90;99.90;;;;;;5054018;28;20495;-68
2022/09/20 01:43:03;;;;;;;0.77;0.77;;;9.00;99.90;;;;;;5053187;28;20428;-68
2022/09/20 01:45:53;;;;;;;0.40;0.40;;;9.00;99.90;;;;;;5053735;28;20523;-67
2022/09/20 01:48:42;;;;;;;0.40;0.40;;;9.10;99.90;;;;;;5053715;28;20440;-67
2022/09/20 01:51:56;;;;;;;0.40;0.40;;;9.10;99.90;;;;;;5052930;28;20507;-67
2022/09/20 01:55:15;;;;;;;0.40;0.40;;;9.10;99.90;;;;;;5053673;28;21019;-67
2022/09/20 01:58:33;;;;;;;0.40;0.40;;;9.10;99.90;;;;;;5054022;28;20567;-66
2022/09/20 02:01:51;;;;;;;0.40;0.40;;;9.00;99.90;;;;;;5052950;28;20936;-67
2022/09/20 02:05:14;;;;;;;0.40;0.40;;;9.00;99.90;;;;;;5054179;28;20420;-67
2022/09/20 02:08:21;;;;;;;0.70;0.70;;;9.00;99.90;;;;;;5052534;28;20563;-67
2022/09/20 02:11:16;;;;;;;0.40;0.40;;;9.00;99.90;;;;;;5052506;28;20880;-67
2022/09/20 02:14:26;;;;;;;0.40;0.40;;;9.00;99.90;;;;;;5053652;28;20424;-66
2022/09/20 02:17:21;;;;;;;0.40;0.40;;;9.10;99.90;;;;;;5052541;28;20919;-67
2022/09/20 02:20:22;;;;;;;0.40;0.40;;;9.10;99.90;;;;;;5053447;28;20476;-67
2022/09/20 02:23:27;;;;;;;0.50;0.50;;;9.10;99.90;;;;;;5052970;28;20424;-67
2022/09/20 02:26:28;;;;;;;0.40;0.40;;;9.20;99.90;;;;;;5052645;28;20527;-68
2022/09/20 02:29:25;;;;;;;0.40;0.40;;;9.20;99.90;;;;;;5047097;28;20457;-66
2022/09/20 02:32:28;;;;;;;0.40;0.40;;;9.20;99.90;;;;;;5031355;28;20811;-68
2022/09/20 02:35:27;;;;;;;0.40;0.40;;;9.30;99.90;;;;;;5031364;28;20494;-68
2022/09/20 02:38:28;;;;;;;0.40;0.40;;;9.30;99.90;;;;;;5031160;28;20464;-67
2022/09/20 02:41:46;;;;;;;0.40;0.40;;;9.30;99.90;;;;;;5031212;28;20537;-67
2022/09/20 02:44:53;;;;;;;0.40;0.40;;;9.40;99.90;;;;;;5031065;28;20512;-67
2022/09/20 02:47:43;;;;;;;0.40;0.40;;;9.40;99.90;;;;;;5032536;28;20440;-67
2022/09/20 02:50:37;;;;;;;0.40;0.40;;;9.40;99.90;;;;;;5031045;28;20531;-68
2022/09/20 02:53:36;;;;;;;0.40;0.40;;;9.40;99.90;;;;;;5032260;28;20572;-67
2022/09/20 02:56:31;;;;;;;0.40;0.40;;;9.50;99.90;;;;;;5031482;28;20449;-68
2022/09/20 02:59:27;;;;;;;0.50;0.50;;;9.50;99.90;;;;;;5030721;28;20547;-67
2022/09/20 03:02:23;;;;;;;0.40;0.40;;;9.50;99.90;;;;;;5032357;28;20427;-68
2022/09/20 03:05:19;;;;;;;0.40;0.40;;;9.50;99.90;;;;;;5031599;28;20822;-67
2022/09/20 03:08:31;;;;;;;0.40;0.40;;;9.50;99.90;;;;;;5031441;28;20798;-66
2022/09/20 03:11:29;;;;;;;0.40;0.40;;;9.50;99.90;;;;;;5026053;28;20497;-68
2022/09/20 03:14:22;;;;;;;0.50;0.50;;;9.60;99.90;;;;;;5031662;28;20425;-66
2022/09/20 03:17:20;;;;;;;0.40;0.40;;;9.60;99.90;;;;;;5031581;28;20579;-67
2022/09/20 03:20:23;;;;;;;0.40;0.40;;;9.60;99.90;;;;;;5032127;28;20555;-67
2022/09/20 03:23:27;;;;;;;0.40;0.40;;;9.70;99.90;;;;;;5032034;28;20955;-68
2022/09/20 03:26:26;;;;;;;0.40;0.40;;;9.70;99.90;;;;;;5032754;28;20961;-67
2022/09/20 03:29:32;;;;;;;0.50;0.50;;;9.70;99.90;;;;;;5027185;28;20644;-66
2022/09/20 03:32:32;;;;;;;0.40;0.40;;;9.70;99.90;;;;;;5031637;28;20420;-68
2022/09/20 03:35:37;;;;;;;0.40;0.40;;;9.70;99.90;;;;;;5026919;28;20468;-67
2022/09/20 03:38:58;;;;;;;0.40;0.40;;;9.70;99.90;;;;;;5035102;28;20455;-67
2022/09/20 03:42:09;;;;;;;0.40;0.40;;;9.70;99.90;;;;;;5036123;28;20413;-67
2022/09/20 03:45:29;;;;;;;0.40;0.40;;;9.70;99.90;;;;;;5035383;28;20522;-67
2022/09/20 03:48:44;;;;;;;0.40;0.40;;;9.70;99.90;;;;;;5035907;28;20424;-66
2022/09/20 03:51:43;;;;;;;2.20;0.83;;;9.70;99.90;;;;;;5035914;28;20479;-67
2022/09/20 03:54:52;;;;;;;0.40;0.40;;;9.70;99.90;;;;;;5036306;28;20613;-67
2022/09/20 03:58:00;;;;;;;0.40;0.40;;;9.70;99.90;;;;;;5035602;28;20423;-66
2022/09/20 04:01:08;;;;;;;0.40;0.40;;;9.70;99.90;;;;;;5034792;28;20464;-67
2022/09/20 04:04:03;;;;;;;0.40;0.40;;;9.70;99.90;;;;;;5034169;28;20424;-66
2022/09/20 04:07:10;;;;;;;0.40;0.40;;;9.60;99.90;;;;;;5034603;28;20511;-67
2022/09/20 04:10:13;;;;;;;0.40;0.40;;;9.60;99.90;;;;;;5035528;28;21066;-66
2022/09/20 04:13:25;;;;;;;1.87;1.80;;;9.60;99.90;;;;;;5034018;28;20874;-66
2022/09/20 04:16:26;;;;;;;0.63;0.50;;;9.60;99.90;;;;;;5035896;28;20479;-67
2022/09/20 04:19:23;;;;;;;0.50;0.50;;;9.60;99.90;;;;;;5034478;28;20464;-67
2022/09/20 04:22:13;;;;;;;0.77;0.77;;;9.60;99.90;;;;;;5035107;28;20425;-67
2022/09/20 04:25:12;;;;;;;0.50;0.50;;;9.70;99.90;;;;;;5035029;28;20484;-66
2022/09/20 04:28:04;;;;;;;0.50;0.50;;;9.60;99.90;;;;;;5035763;28;21001;-66
2022/09/20 04:30:56;;;;;;;0.40;0.40;;;9.60;99.90;;;;;;5044557;28;20468;-67
2022/09/20 04:33:50;;;;;;;0.40;0.40;;;9.60;99.90;;;;;;5055088;28;20451;-66
2022/09/20 04:36:56;;;;;;;0.50;0.50;;;9.70;99.90;;;;;;5054600;28;20435;-68
2022/09/20 04:39:55;;;;;;;0.40;0.40;;;9.60;99.90;;;;;;5055136;28;20836;-66
2022/09/20 04:43:17;;;;;;;0.40;0.40;;;9.60;99.90;;;;;;5054586;28;21015;-67
2022/09/20 04:46:35;;;;;;;0.40;0.40;;;9.60;99.90;;;;;;5054388;28;20513;-67
2022/09/20 04:49:58;;;;;;;0.50;0.50;;;9.60;99.90;;;;;;5053851;28;20483;-67
2022/09/20 04:53:20;;;;;;;0.43;0.43;;;9.50;99.90;;;;;;5055160;28;20447;-68
2022/09/20 04:56:20;;;;;;;1.13;1.13;;;9.50;99.90;;;;;;5054773;28;20483;-66
2022/09/20 04:59:10;;;;;;;0.50;0.50;;;9.40;99.90;;;;;;5053804;28;20445;-68
2022/09/20 05:02:41;;;;;;;0.40;0.40;;;9.40;99.90;;;;;;5054175;28;20451;-67
2022/09/20 05:05:57;;;;;;;0.40;0.40;;;9.40;99.90;;;;;;5053878;28;20423;-67
2022/09/20 05:09:00;;;;;;;0.40;0.40;;;9.20;99.90;;;;;;5054329;28;20784;-67
2022/09/20 05:12:33;;;;;;;0.40;0.40;;;9.20;99.90;;;;;;5053452;28;20420;-68
2022/09/20 05:15:35;;;;;;;0.97;0.97;;;9.10;99.90;;;;;;5054469;28;20424;-67
2022/09/20 05:18:48;;;;;;;0.40;0.40;;;9.10;99.90;;;;;;5053163;28;20463;-67
2022/09/20 05:21:50;;;;;;;0.40;0.40;;;9.00;99.90;;;;;;5054004;28;20909;-67
2022/09/20 05:24:52;;;;;;;0.40;0.40;;;9.00;99.90;;;;;;5054005;28;20431;-67
2022/09/20 05:27:48;;;;;;;0.40;0.40;;;9.00;99.90;;;;;;5053699;28;20511;-68
2022/09/20 05:30:41;;;;;;;0.50;0.50;;;9.00;99.90;;;;;;5054404;28;20454;-67
2022/09/20 05:33:38;;;;;;;0.40;0.40;;;9.00;99.90;;;;;;5053327;28;20478;-67
2022/09/20 05:36:31;;;;;;;0.40;0.40;;;9.00;99.90;;;;;;5053418;28;20426;-67
2022/09/20 05:39:31;;;;;;;0.60;0.60;;;9.00;99.90;;;;;;5052877;28;21091;-67
2022/09/20 05:42:31;;;;;;;0.73;0.73;;;9.00;99.90;;;;;;5054663;28;20515;-67
2022/09/20 05:45:45;;;;;;;0.60;0.60;;;9.10;99.90;;;;;;5052969;28;20511;-67
2022/09/20 05:48:41;;;;;;;0.57;0.57;;;9.10;99.90;;;;;;5052954;28;20983;-67
2022/09/20 05:51:51;;;;;;;0.70;0.70;;;9.20;99.90;;;;;;5052918;28;20916;-67
2022/09/20 05:55:04;;;;;;;0.80;0.80;;;9.20;99.90;;;;;;5054052;28;20825;-67
2022/09/20 05:58:08;;;;;;;0.50;0.50;;;9.20;99.90;;;;;;5052882;28;20506;-67
2022/09/20 06:01:01;;;;;;;0.50;0.50;;;9.30;99.90;;;;;;5052167;28;20468;-67
2022/09/20 06:03:54;;;;;;;0.60;0.60;;;9.30;99.90;;;;;;5053284;28;20426;-67
2022/09/20 06:06:51;;;;;;;0.67;0.63;;;9.30;99.90;;;;;;5052899;28;20568;-67
2022/09/20 06:09:55;;;;;;;0.50;0.50;;;9.40;99.90;;;;;;5053389;28;20448;-66
2022/09/20 06:12:53;;;;;;;0.83;0.83;;;9.30;99.90;;;;;;5052789;28;20582;-67
2022/09/20 06:15:49;;;;;;;0.90;0.90;;;9.30;99.90;;;;;;5053749;28;20507;-67
2022/09/20 06:18:47;;;;;;;0.40;0.40;;;9.40;99.90;;;;;;5054322;28;20555;-67
2022/09/20 06:21:42;;;;;;;0.70;0.63;;;9.40;99.90;;;;;;5053125;28;20622;-66
2022/09/20 06:24:37;;;;;;;0.90;0.90;;;9.40;99.90;;;;;;5039566;28;20429;-67
2022/09/20 06:27:31;;;;;;;0.40;0.40;;;9.30;99.90;;;;;;5032661;28;20887;-67
2022/09/20 06:30:22;;;;;;;0.40;0.40;;;9.40;99.90;;;;;;5032365;28;20977;-67
2022/09/20 06:33:16;;;;;;;0.40;0.40;;;9.30;99.90;;;;;;5032737;28;20531;-68
2022/09/20 06:42:33;;;;;;;0.40;0.40;;;9.30;99.90;;;;;;5038782;28;20460;-67
2022/09/20 06:45:21;;;;;;;0.40;0.40;;;9.30;99.90;;;;;;5032846;28;20495;-68
2022/09/20 06:48:10;;;;;;;0.40;0.40;;;9.30;99.90;;;;;;5032865;28;20561;-68
2022/09/20 06:50:59;;;;;;;0.40;0.40;;;9.40;99.90;;;;;;5033993;28;20445;-67
2022/09/20 06:53:50;;;;;;;0.40;0.40;;;9.40;99.90;;;;;;5033088;28;20476;-67
2022/09/20 06:56:38;;;;;;;0.47;0.47;;;9.40;99.90;;;;;;5045296;28;20566;-68
2022/09/20 06:59:26;;;;;;;0.50;0.50;;;9.40;99.90;;;;;;5040590;28;20457;-67
2022/09/20 07:02:14;;;;;;;0.80;0.80;;;9.40;99.90;;;;;;5040752;28;20471;-67
2022/09/20 07:05:03;;;;;;;0.40;0.40;;;9.50;99.90;;;;;;5052156;28;20951;-67
2022/09/20 07:07:57;;;;;;;0.40;0.40;;;9.40;99.90;;;;;;5053450;28;20433;-67
2022/09/20 07:10:46;;;;;;;0.70;0.70;;;9.50;99.90;;;;;;5047878;28;20440;-67
2022/09/20 07:13:35;;;;;;;0.97;0.70;;;9.70;99.90;;;;;;5056045;28;20543;-68
2022/09/20 07:16:23;;;;;;;0.50;0.50;;;9.80;99.90;;;;;;5058256;28;20563;-68
2022/09/20 07:19:11;;;;;;;0.50;0.50;;;9.90;99.90;;;;;;5056487;28;20444;-67
2022/09/20 07:21:59;;;;;;;0.50;0.50;;;10.10;99.90;;;;;;5056952;28;20475;-67
2022/09/20 07:24:47;;;;;;;1.03;0.70;;;10.20;99.90;;;;;;5056827;28;20559;-68
2022/09/20 07:27:38;;;;;;;1.67;1.20;;;10.40;99.90;;;;;;5056574;28;20420;-68
2022/09/20 07:30:26;;;;;;;0.40;0.40;;;10.50;99.90;;;;;;5055300;28;20499;-68
2022/09/20 07:33:18;;;;;;;0.50;0.50;;;10.70;99.90;;;;;;5054721;28;20456;-67
2022/09/20 07:36:07;;;;;;;0.40;0.40;;;10.80;99.90;;;;;;5054462;28;20467;-67
2022/09/20 07:38:55;;;;;;;0.40;0.40;;;10.90;99.90;;;;;;5049453;28;20576;-67
2022/09/20 07:41:45;;;;;;;1.43;1.13;;;10.90;99.90;;;;;;5055623;28;20466;-68
2022/09/20 07:44:35;;;;;;;1.37;1.27;;;11.00;99.90;;;;;;5057484;28;20954;-67
2022/09/20 07:47:26;;;;;;;2.10;1.90;;;11.20;99.90;;;;;;5056416;28;20955;-67
2022/09/20 07:50:14;;;;;;;3.47;1.77;;;11.40;99.90;;;;;;5048792;28;20467;-68
2022/09/20 07:53:03;;;;;;;0.40;0.40;;;11.50;99.90;;;;;;5057823;28;20919;-68
2022/09/20 07:55:59;;;;;;;0.50;0.50;;;11.70;99.90;;;;;;5053663;28;20451;-68
2022/09/20 07:58:47;;;;;;;0.87;0.87;;;11.80;99.90;;;;;;5052793;28;20428;-67
2022/09/20 08:01:41;;;;;;;3.40;3.20;;;12.00;99.90;;;;;;5052280;28;20478;-67
2022/09/20 08:04:09;;;;;;;0.40;0.40;;;12.00;99.90;;;;;;5054759;28;20796;-67
2022/09/20 08:06:38;;;;;;;0.90;0.90;;;12.00;99.90;;;;;;5047254;28;20429;-67
2022/09/20 08:09:07;;;;;;;5.03;1.67;;;12.20;99.90;;;;;;5042226;28;20424;-68
2022/09/20 08:11:39;;;;;;;0.90;0.90;;;12.20;99.90;;;;;;5043348;28;20508;-67
2022/09/20 08:14:08;;;;;;;1.13;1.03;;;12.40;99.90;;;;;;5057376;28;20498;-67
2022/09/20 08:16:41;;;;;;;1.33;1.27;;;12.50;99.90;;;;;;5057071;28;20432;-67
2022/09/20 08:19:15;;;;;;;1.47;1.10;;;12.50;99.90;;;;;;5056697;28;20474;-67
2022/09/20 08:21:43;;;;;;;16.13;2.83;;;12.20;99.90;;;;;;5053270;28;20521;-68
2022/09/20 08:24:11;;;;;;;0.97;0.97;;;12.20;99.90;;;;;;5055398;28;20428;-67
2022/09/20 08:26:40;;;;;;;1.70;1.57;;;12.10;99.90;;;;;;5056381;28;20428;-68
2022/09/20 08:29:09;;;;;;;1.80;1.30;;;;;;;;;;5055629;28;20447;-67
2022/09/20 08:31:41;;;;;;;0.60;0.50;;;11.80;99.90;;;;;;5055967;28;20543;-67
2022/09/20 08:34:11;;;;;;;0.40;0.40;;;11.90;99.90;;;;;;5056092;28;20440;-67
2022/09/20 08:36:44;;;;;;;1.37;1.33;;;11.90;99.90;;;;;;5044723;28;20429;-67
2022/09/20 08:39:12;;;;;;;0.40;0.40;;;12.10;99.90;;;;;;5049071;28;20456;-67
2022/09/20 08:42:11;;;;;;;2.00;1.30;;;12.20;99.90;;;;;;5041942;28;20527;-68
2022/09/20 08:44:49;;;;;;;0.70;0.63;;;12.20;99.90;;;;;;5038599;28;20435;-67
2022/09/20 08:47:29;;;;;;;3.83;3.40;;;12.30;99.90;;;;;;5044575;28;20481;-68
2022/09/20 08:49:58;;;;;;;0.40;0.40;;;12.50;99.90;;;;;;5044916;28;20453;-68
2022/09/20 08:52:30;;;;;;;3.30;2.23;;;12.70;99.90;;;;;;5045998;28;20519;-66
2022/09/20 08:55:12;;;;;;;2.50;1.93;;;13.00;99.90;;;;;;5057193;28;20446;-67
2022/09/20 08:57:40;;;;;;;0.80;0.50;;;13.00;99.90;;;;;;5056551;28;20462;-67
2022/09/20 09:00:17;;;;;;;1.87;1.33;;;12.80;99.90;;;;;;5054945;28;20452;-67
2022/09/20 09:02:51;;;;;;;0.40;0.40;;;12.60;99.90;;;;;;5056744;28;20499;-67
2022/09/20 09:05:32;;;;;;;2.37;1.70;;;12.70;99.90;;;;;;5056717;28;20522;-67
2022/09/20 09:08:04;;;;;;;1.73;1.63;;;12.90;99.90;;;;;;5056493;28;20436;-67
2022/09/20 09:10:36;;;;;;;1.47;1.37;;;13.20;99.90;;;;;;5054942;28;20535;-66
2022/09/20 09:13:18;;;;;;;1.73;0.77;;;13.10;99.90;;;;;;5054002;28;20529;-67
2022/09/20 09:15:52;;;;;;;1.63;1.50;;;13.10;99.90;;;;;;5036627;28;20432;-68
2022/09/20 09:18:21;;;;;;;1.50;1.40;;;12.80;99.90;;;;;;5051546;28;20510;-67
2022/09/20 09:20:50;;;;;;;0.40;0.40;;;12.60;99.90;;;;;;5043613;28;20531;-68
2022/09/20 09:23:25;;;;;;;2.87;2.50;;;12.60;99.90;;;;;;5050321;28;20468;-67
2022/09/20 09:25:55;;;;;;;0.40;0.40;;;12.90;99.90;;;;;;5056325;28;20446;-67
2022/09/20 09:28:24;;;;;;;6.33;3.40;;;13.20;99.90;;;;;;5056409;28;20420;-67
2022/09/20 09:30:53;;;;;;;0.40;0.40;;;13.50;99.90;;;;;;5055574;28;20534;-67
2022/09/20 09:33:27;;;;;;;0.70;0.70;;;13.50;99.90;;;;;;5055581;28;20451;-67
2022/09/20 09:35:58;;;;;;;0.40;0.40;;;13.60;99.90;;;;;;5054052;28;20486;-67
2022/09/20 09:38:29;;;;;;;2.60;1.33;;;13.60;99.90;;;;;;5035813;28;20425;-67
2022/09/20 09:40:59;;;;;;;4.93;1.13;;;13.80;99.90;;;;;;5034802;28;20479;-67
2022/09/20 09:43:30;;;;;;;2.20;1.17;;;14.00;99.90;;;;;;5035351;28;20469;-67
2022/09/20 09:46:17;;;;;;;0.87;0.87;;;14.10;99.90;;;;;;5045514;28;20495;-68
2022/09/20 09:48:48;;;;;;;0.40;0.40;;;14.40;99.90;;;;;;5054026;28;20502;-68
2022/09/20 09:51:18;;;;;;;0.70;0.57;;;14.40;99.90;;;;;;5053592;28;20436;-67
2022/09/20 09:53:48;;;;;;;0.40;0.40;;;14.10;99.90;;;;;;5054521;28;20432;-67
2022/09/20 09:56:46;;;;;;;1.13;0.87;;;13.60;99.90;;;;;;5055585;28;20447;-66
2022/09/20 09:59:51;;;;;;;1.40;1.30;;;13.50;99.90;;;;;;5055012;28;20560;-67
2022/09/20 10:02:33;;;;;;;0.93;0.63;;;13.40;99.90;;;;;;5042849;28;20472;-67
2022/09/20 10:05:13;;;;;;;0.80;0.70;;;13.50;99.90;;;;;;5032040;28;20463;-66
2022/09/20 10:07:50;;;;;;;0.40;0.40;;;13.50;99.90;;;;;;5035710;28;20516;-67
2022/09/20 10:10:26;;;;;;;0.50;0.50;;;13.80;99.90;;;;;;5032338;28;20460;-68
2022/09/20 10:13:09;;;;;;;2.93;1.67;;;14.20;99.90;;;;;;5049538;28;20442;-67
2022/09/20 10:15:44;;;;;;;3.00;1.60;;;14.20;99.90;;;;;;5030337;28;20437;-67
2022/09/20 10:18:25;;;;;;;0.87;0.87;;;14.20;99.90;;;;;;5049266;28;20428;-67
2022/09/20 10:21:17;;;;;;;0.40;0.40;;;14.20;99.90;;;;;;5051576;28;20452;-67
2022/09/20 10:23:57;;;;;;;2.60;1.47;;;14.40;99.90;;;;;;5053445;28;20541;-67
2022/09/20 10:26:57;;;;;;;2.37;2.17;;;14.60;99.90;;;;;;5054468;28;20443;-67
2022/09/20 10:29:38;;;;;;;0.50;0.50;;;14.50;99.90;;;;;;5026153;28;20460;-68
2022/09/20 10:32:18;;;;;;;0.97;0.97;;;14.70;99.90;;;;;;5048451;28;20457;-68
2022/09/20 10:35:08;;;;;;;0.40;0.40;;;14.70;99.90;;;;;;5043737;28;20436;-69
2022/09/20 10:37:49;;;;;;;1.70;1.60;;;14.70;99.90;;;;;;5044344;28;20529;-67
2022/09/20 10:43:13;;;;;;;0.67;0.60;;;14.70;99.90;;;;;;5052989;28;20448;-68
2022/09/20 10:43:29;;;;;;;1.50;1.40;;;14.50;99.90;;;;;;5052745;28;20479;-67
2022/09/20 10:46:06;;;;;;;0.70;0.70;;;14.20;99.90;;;;;;5051045;28;20444;-67
2022/09/20 10:49:10;;;;;;;0.40;0.40;;;14.00;99.90;;;;;;5050095;28;20451;-65
2022/09/20 10:51:51;;;;;;;0.50;0.50;;;14.00;99.90;;;;;;5044713;28;20440;-67
2022/09/20 10:54:34;;;;;;;0.40;0.40;;;14.00;99.90;;;;;;5043540;28;20508;-67
2022/09/20 10:57:19;;;;;;;0.90;0.90;;;14.10;99.90;;;;;;5043043;28;20432;-67
2022/09/20 10:59:54;;;;;;;0.40;0.40;;;14.00;99.90;;;;;;5054089;28;20440;-66
2022/09/20 11:02:50;;;;;;;0.83;0.83;;;13.80;99.90;;;;;;5050125;28;20419;-66
2022/09/20 11:05:35;;;;;;;2.00;0.80;;;13.70;99.90;;;;;;5042398;28;20433;-67
2022/09/20 11:08:10;;;;;;;0.80;0.80;;;13.50;99.90;;;;;;5034256;28;20436;-68
2022/09/20 11:10:45;;;;;;;0.40;0.40;;;13.40;99.90;;;;;;5047907;28;20488;-68
2022/09/20 11:13:22;;;;;;;0.50;0.50;;;13.30;99.90;;;;;;5054172;28;20428;-67
2022/09/20 11:15:58;;;;;;;0.90;0.90;;;13.20;99.90;;;;;;5054056;28;20466;-67
2022/09/20 11:18:34;;;;;;;1.77;1.37;;;13.20;99.90;;;;;;5045623;28;20456;-67
2022/09/20 11:21:08;;;;;;;0.97;0.87;;;13.30;99.90;;;;;;5045246;28;20514;-66
2022/09/20 11:23:46;;;;;;;0.90;0.90;;;13.40;99.90;;;;;;5052995;28;20567;-67
2022/09/20 11:26:21;;;;;;;0.47;0.47;;;13.70;99.90;;;;;;5052835;28;20530;-66
2022/09/20 11:28:52;;;;;;;1.23;1.23;;;14.30;99.90;;;;;;5052996;28;20431;-66
2022/09/20 11:31:26;;;;;;;0.40;0.40;;;14.40;99.90;;;;;;5110698;22;20546;-68
2022/09/20 11:34:17;;;;;;;1.53;1.10;;;14.70;99.90;;;;;;5113546;28;21210;-69
2022/09/20 11:36:53;;;;;;;0.40;0.40;;;15.00;99.90;;;;;;5113979;28;20482;-69
2022/09/20 11:39:23;;;;;;;0.40;0.40;;;;;;;;;;5112845;28;20433;-69
2022/09/20 11:41:55;;;;;;;1.17;0.90;;;15.90;99.90;;;;;;5083509;28;20427;-69
2022/09/20 11:44:23;;;;;;;0.40;0.40;;;15.90;99.90;;;;;;5092236;28;20527;-69
2022/09/20 11:46:55;;;;;;;0.40;0.40;;;15.40;99.90;;;;;;5092751;28;20434;-68
2022/09/20 11:49:30;;;;;;;0.40;0.40;;;15.30;99.90;;;;;;5092425;28;20426;-68
2022/09/20 11:52:24;;;;;;;0.40;0.40;;;15.20;99.90;;;;;;5092533;28;20510;-69
2022/09/20 11:55:33;;;;;;;0.47;0.47;;;15.20;99.90;;;;;;5071869;28;20437;-69
2022/09/20 11:58:06;;;;;;;0.70;0.70;;;14.60;99.90;;;;;;5023432;28;20421;-69
2022/09/20 12:00:37;;;;;;;0.50;0.40;;;14.50;99.90;;;;;;5075794;28;20454;-69
2022/09/20 12:03:11;;;;;;;0.83;0.83;;;14.50;99.90;;;;;;5078474;28;20502;-69
2022/09/20 12:05:42;;;;;;;0.40;0.40;;;14.40;99.90;;;;;;5080056;28;20487;-68
2022/09/20 12:08:22;;;;;;;0.40;0.40;;;14.50;99.90;;;;;;5096404;28;20950;-69
2022/09/20 12:10:57;;;;;;;0.40;0.40;;;14.90;99.90;;;;;;5095808;28;20961;-68
2022/09/20 12:13:27;;;;;;;1.37;0.60;;;15.00;99.90;;;;;;5095848;28;20887;-69
2022/09/20 12:16:02;;;;;;;0.40;0.40;;;15.10;99.90;;;;;;5095719;28;21013;-69
2022/09/20 12:18:46;;;;;;;0.40;0.40;;;15.40;99.90;;;;;;5096313;28;20972;-68
2022/09/20 12:21:17;;;;;;;1.20;1.10;;;15.80;99.90;;;;;;5077143;28;20473;-69
2022/09/20 12:24:17;;;;;;;0.40;0.40;;;16.00;99.90;;;;;;5075458;28;20467;-69
2022/09/20 12:26:50;;;;;;;0.40;0.40;;;16.30;99.90;;;;;;5076103;28;20958;-69
2022/09/20 12:29:53;;;;;;;0.67;0.67;;;16.60;99.90;;;;;;5090650;28;20470;-70
2022/09/20 12:32:52;;;;;;;2.73;0.60;;;16.90;99.90;;;;;;5101374;28;20461;-69
2022/09/20 12:35:58;;;;;;;0.40;0.40;;;17.20;99.90;;;;;;5102884;28;20659;-69
2022/09/20 12:38:30;;;;;;;0.40;0.40;;;17.30;99.90;;;;;;5109135;28;20203;-69
2022/09/20 12:40:59;;;;;;;0.77;0.50;;;17.10;99.90;;;;;;5107659;28;20247;-69
2022/09/20 12:43:30;;;;;;;0.83;0.83;;;16.90;99.90;;;;;;5107542;28;20219;-69
2022/09/20 12:45:59;;;;;;;0.40;0.40;;;16.60;99.90;;;;;;5108648;28;20566;-70
2022/09/20 12:48:38;;;;;;;0.40;0.40;;;16.40;99.90;;;;;;5095242;28;20203;-69
2022/09/20 12:54:10;;;;;;;0.40;0.40;;;16.80;99.90;;;;;;5096322;28;20937;-69
2022/09/20 12:56:43;;;;;;;0.57;0.57;;;16.80;99.90;;;;;;5095430;28;20541;-70
2022/09/20 12:59:21;;;;;;;0.40;0.40;;;16.90;99.90;;;;;;5091643;28;20572;-70
2022/09/20 13:01:49;;;;;;;0.40;0.40;;;17.00;99.90;;;;;;5095345;28;20612;-70
2022/09/20 13:04:54;;;;;;;0.50;0.50;;;16.90;99.90;;;;;;5096064;28;20583;-69
2022/09/20 13:07:53;;;;;;;0.70;0.70;;;16.60;99.90;;;;;;5096699;28;20195;-70
2022/09/20 13:10:44;;;;;;;0.90;0.50;;;14.00;99.90;;;;;;5095799;28;20857;-69
2022/09/20 13:13:35;;;;;;;0.40;0.40;;;12.40;99.90;;;;;;5096115;28;20426;-69
2022/09/20 13:16:29;;;;;;;2.00;1.43;;;11.40;99.90;;;;;;5095891;28;20509;-69
2022/09/20 13:19:20;;;;;;;0.40;0.40;;;10.90;99.90;;;;;;5094423;28;20422;-69
2022/09/20 13:22:16;;;;;;;0.73;0.73;;;10.90;99.90;;;;;;5095163;28;20783;-69
2022/09/20 13:25:07;;;;;;;0.40;0.40;;;10.70;99.90;;;;;;5095295;28;20471;-68
2022/09/20 13:28:06;;;;;;;0.40;0.40;;;10.70;99.90;;;;;;5095250;28;20450;-69
2022/09/20 13:31:30;;;;;;;0.40;0.40;;;10.70;99.90;;;;;;5095105;28;20482;-69
2022/09/20 13:34:21;;;;;;;0.40;0.40;;;10.80;99.90;;;;;;5094861;28;20419;-69
2022/09/20 13:37:21;;;;;;;0.40;0.40;;;10.90;99.90;;;;;;5095546;28;20890;-69
2022/09/20 13:40:17;;;;;;;0.40;0.40;;;10.90;99.90;;;;;;5094106;28;20445;-69
2022/09/20 13:43:15;;;;;;;0.40;0.40;;;10.90;99.90;;;;;;5094136;28;20926;-69
2022/09/20 13:46:14;;;;;;;0.40;0.40;;;11.00;99.90;;;;;;5093294;28;20418;-69
2022/09/20 13:49:21;;;;;;;0.40;0.40;;;11.10;99.90;;;;;;5095242;28;20426;-69
2022/09/20 13:52:23;;;;;;;0.40;0.40;;;11.10;99.90;;;;;;5087422;28;20515;-69
2022/09/20 13:55:27;;;;;;;0.40;0.40;;;11.20;99.90;;;;;;5095521;28;20415;-69
2022/09/20 13:58:20;;;;;;;0.40;0.40;;;11.10;99.90;;;;;;5095079;28;20510;-68
2022/09/20 14:01:22;;;;;;;0.40;0.40;;;11.00;99.90;;;;;;5095491;28;20493;-69
2022/09/20 14:04:15;;;;;;;0.40;0.40;;;10.90;99.90;;;;;;5096226;28;20521;-69
2022/09/20 14:07:07;;;;;;;0.40;0.40;;;11.00;99.90;;;;;;5095256;28;20450;-69
2022/09/20 14:09:57;;;;;;;0.40;0.40;;;11.00;99.90;;;;;;5094150;28;20497;-69
2022/09/20 14:12:48;;;;;;;0.40;0.40;;;11.10;99.90;;;;;;5094095;28;20454;-69
2022/09/20 14:15:38;;;;;;;0.40;0.40;;;11.10;99.90;;;;;;5094326;28;20545;-69
2022/09/20 14:18:27;;;;;;;0.40;0.40;;;11.30;99.90;;;;;;5093870;28;20450;-69
2022/09/20 14:21:21;;;;;;;0.40;0.40;;;11.40;99.90;;;;;;5086951;28;20870;-69
2022/09/20 14:24:24;;;;;;;0.40;0.40;;;11.40;99.90;;;;;;5084667;28;22330;-69
2022/09/20 14:27:19;;;;;;;0.40;0.40;;;11.50;99.90;;;;;;5085608;28;20453;-69
2022/09/20 14:30:29;;;;;;;0.40;0.40;;;11.60;99.90;;;;;;5089770;28;20462;-69
2022/09/20 14:33:20;;;;;;;0.40;0.40;;;11.60;99.90;;;;;;5094233;28;20446;-69
2022/09/20 14:36:15;;;;;;;0.40;0.40;;;11.70;99.90;;;;;;5093960;28;20419;-69
2022/09/20 14:39:05;;;;;;;0.40;0.40;;;11.60;99.90;;;;;;5094158;28;20430;-69
2022/09/20 14:41:54;;;;;;;0.40;0.40;;;11.80;99.90;;;;;;5094145;28;20522;-69
2022/09/20 14:44:43;;;;;;;0.40;0.40;;;11.90;99.90;;;;;;5089895;28;20546;-69
2022/09/20 14:47:38;;;;;;;0.40;0.40;;;12.00;99.90;;;;;;5080655;28;20476;-69
2022/09/20 14:50:28;;;;;;;0.40;0.40;;;12.10;99.90;;;;;;5072843;28;20516;-69
2022/09/20 14:53:26;;;;;;;0.40;0.40;;;12.10;99.90;;;;;;5081337;28;20501;-69
2022/09/20 14:56:16;;;;;;;0.40;0.40;;;12.30;99.90;;;;;;5084818;28;21029;-69
2022/09/20 14:59:07;;;;;;;0.60;0.60;;;12.40;99.90;;;;;;5085065;28;20955;-69
2022/09/20 15:02:03;;;;;;;0.40;0.40;;;12.40;99.90;;;;;;5098786;28;20422;-69
2022/09/20 15:04:54;;;;;;;0.40;0.40;;;12.30;99.90;;;;;;5100529;28;20508;-70